createdAt,value
2017-12-23T00:01:39.952Z,58.50
2017-12-23T00:04:08.113Z,62.90
2017-12-23T00:06:36.230Z,85.43
2017-12-23T00:09:04.357Z,76.67
2017-12-23T00:11:32.479Z,67.10
2017-12-23T00:14:01.546Z,84.37
2017-12-23T00:18:58.516Z,93.60
2017-12-23T00:21:26.631Z,108.43
2017-12-23T00:23:54.756Z,93.03
2017-12-23T00:26:22.920Z,99.83
2017-12-23T00:28:51.148Z,100.43
2017-12-23T00:34:35.943Z,88.47
2017-12-23T00:37:04.089Z,107.10
2017-12-23T00:39:32.234Z,94.17
2017-12-23T00:42:00.404Z,114.30
2017-12-23T00:44:28.557Z,96.70
2017-12-23T00:46:56.649Z,110.90
2017-12-23T00:49:24.799Z,106.20
2017-12-23T00:51:52.913Z,96.00
2017-12-23T00:54:21.013Z,116.37
2017-12-23T00:56:49.502Z,105.70
2017-12-23T00:59:17.587Z,104.47
2017-12-23T01:01:46.678Z,107.30
2017-12-23T01:04:15.832Z,113.50
2017-12-23T01:06:43.953Z,97.63
2017-12-23T01:09:12.847Z,121.20
2017-12-23T01:11:41.750Z,112.97
2017-12-23T01:14:11.034Z,113.77
2017-12-23T01:16:39.876Z,116.63
2017-12-23T01:21:47.564Z,124.10
2017-12-23T01:24:15.764Z,103.20
2017-12-23T01:26:44.073Z,97.17
2017-12-23T01:29:12.340Z,102.03
2017-12-23T01:31:40.425Z,111.20
2017-12-23T01:34:08.566Z,98.70
2017-12-23T01:36:36.789Z,89.97
2017-12-23T01:39:04.998Z,108.63
2017-12-23T01:41:33.121Z,99.10
2017-12-23T01:44:01.201Z,96.47
2017-12-23T01:49:09.278Z,97.23
2017-12-23T01:51:37.384Z,99.33
2017-12-23T01:54:05.555Z,102.40
2017-12-23T01:56:33.667Z,106.17
2017-12-23T01:59:02.585Z,99.37
2017-12-23T02:01:30.812Z,85.60
2017-12-23T02:03:58.912Z,89.60
2017-12-23T02:06:27.760Z,94.83
2017-12-23T02:08:55.968Z,103.03
2017-12-23T02:11:25.055Z,96.00
2017-12-23T02:13:53.188Z,105.33
2017-12-23T02:16:21.280Z,91.10
2017-12-23T02:18:49.454Z,99.60
2017-12-23T02:21:17.572Z,104.23
2017-12-23T02:23:46.526Z,96.80
2017-12-23T02:26:14.673Z,90.97
2017-12-23T02:28:42.763Z,99.43
2017-12-23T02:31:10.857Z,114.93
2017-12-23T02:33:38.994Z,91.07
2017-12-23T02:36:07.145Z,94.43
2017-12-23T02:41:50.162Z,95.13
2017-12-23T02:44:19.113Z,106.80
2017-12-23T02:49:38.408Z,97.40
2017-12-23T02:52:06.484Z,101.37
2017-12-23T02:54:34.760Z,109.30
2017-12-23T02:57:03.235Z,102.50
2017-12-23T02:59:31.470Z,103.60
2017-12-23T03:01:59.588Z,112.27
2017-12-23T03:04:27.712Z,92.20
2017-12-23T03:06:56.244Z,97.57
2017-12-23T03:09:24.496Z,98.53
2017-12-23T03:11:52.718Z,102.57
2017-12-23T03:14:20.907Z,102.90
2017-12-23T03:16:51.308Z,94.33
2017-12-23T03:19:19.571Z,104.77
2017-12-23T03:21:47.851Z,92.33
2017-12-23T03:24:15.962Z,96.63
2017-12-23T03:26:44.865Z,90.73
2017-12-23T03:29:12.982Z,96.23
2017-12-23T03:31:41.248Z,94.63
2017-12-23T03:34:10.269Z,103.13
2017-12-23T03:36:38.408Z,102.07
2017-12-23T03:42:21.375Z,99.03
2017-12-23T03:44:49.530Z,104.33
2017-12-23T03:47:17.648Z,94.17
2017-12-23T03:49:46.588Z,113.70
2017-12-23T03:52:14.705Z,114.63
2017-12-23T03:54:43.584Z,119.40
2017-12-23T03:57:11.762Z,110.77
2017-12-23T03:59:40.528Z,109.30
2017-12-23T04:02:08.603Z,108.30
2017-12-23T04:04:36.736Z,111.33
2017-12-23T04:07:04.850Z,105.63
2017-12-23T04:09:34.204Z,122.13
2017-12-23T04:12:02.416Z,94.00
2017-12-23T04:14:30.645Z,109.10
2017-12-23T04:16:58.910Z,90.50
2017-12-23T04:19:27.927Z,85.73
2017-12-23T04:21:56.043Z,84.90
2017-12-23T04:24:24.296Z,87.03
2017-12-23T04:26:52.944Z,83.30
2017-12-23T04:29:21.100Z,70.50
2017-12-23T04:31:49.984Z,65.87
2017-12-23T04:34:18.154Z,56.80
2017-12-23T04:36:46.316Z,60.17
2017-12-23T04:39:14.449Z,58.80
2017-12-23T04:41:42.596Z,55.67
2017-12-23T04:44:12.438Z,50.27
2017-12-23T04:46:40.527Z,46.13
2017-12-23T04:49:08.656Z,44.23
2017-12-23T04:54:52.852Z,47.00
2017-12-23T04:57:20.947Z,50.77
2017-12-23T04:59:49.420Z,49.47
2017-12-23T05:02:17.576Z,51.77
2017-12-23T05:04:45.674Z,58.13
2017-12-23T05:07:13.779Z,75.10
2017-12-23T05:09:43.858Z,60.30
2017-12-23T05:12:12.980Z,60.70
2017-12-23T05:14:41.106Z,64.13
2017-12-23T05:17:10.196Z,73.20
2017-12-23T05:19:38.741Z,75.70
2017-12-23T05:22:07.628Z,72.90
2017-12-23T05:24:36.733Z,74.93
2017-12-23T05:27:05.672Z,74.57
2017-12-23T05:29:33.837Z,79.03
2017-12-23T05:32:01.994Z,92.67
2017-12-23T05:34:30.082Z,94.90
2017-12-23T05:36:58.182Z,86.30
2017-12-23T05:39:26.448Z,99.17
2017-12-23T05:41:54.525Z,101.63
2017-12-23T05:47:01.800Z,112.57
2017-12-23T05:49:30.215Z,118.67
2017-12-23T05:51:58.451Z,115.10
2017-12-23T05:54:28.645Z,104.80
2017-12-23T05:56:57.627Z,119.00
2017-12-23T05:59:26.544Z,108.93
2017-12-23T06:01:54.839Z,113.67
2017-12-23T06:04:22.934Z,113.40
2017-12-23T06:06:51.107Z,111.13
2017-12-23T06:09:19.400Z,102.80
2017-12-23T06:11:47.569Z,112.63
2017-12-23T06:14:15.680Z,112.43
2017-12-23T06:16:44.629Z,108.77
2017-12-23T06:19:12.827Z,110.67
2017-12-23T06:21:41.720Z,132.07
2017-12-23T06:24:10.568Z,132.43
2017-12-23T06:29:17.781Z,132.80
2017-12-23T06:31:45.883Z,116.13
2017-12-23T06:34:14.859Z,111.33
2017-12-23T06:36:42.947Z,126.37
2017-12-23T06:39:11.943Z,119.77
2017-12-23T06:41:44.927Z,119.90
2017-12-23T06:44:14.206Z,120.13
2017-12-23T06:46:42.290Z,115.00
2017-12-23T06:49:10.418Z,125.33
2017-12-23T06:51:38.610Z,130.53
2017-12-23T06:54:06.745Z,121.77
2017-12-23T06:56:35.660Z,119.57
2017-12-23T06:59:03.860Z,113.30
2017-12-23T07:01:32.044Z,118.03
2017-12-23T07:04:00.147Z,128.47
2017-12-23T07:06:29.048Z,125.03
2017-12-23T07:08:57.132Z,135.40
2017-12-23T07:11:27.177Z,125.73
2017-12-23T07:13:55.324Z,122.93
2017-12-23T07:16:23.465Z,133.57
2017-12-23T07:18:52.409Z,134.07
2017-12-23T07:21:21.454Z,128.23
2017-12-23T07:23:49.723Z,130.50
2017-12-23T07:26:17.850Z,139.10
2017-12-23T07:28:46.084Z,140.07
2017-12-23T07:31:15.903Z,153.97
2017-12-23T07:33:44.865Z,133.50
2017-12-23T07:36:12.994Z,134.50
2017-12-23T07:38:41.156Z,136.97
2017-12-23T07:41:09.280Z,135.53
2017-12-23T07:43:37.372Z,125.70
2017-12-23T07:46:05.752Z,137.30
2017-12-23T07:48:33.896Z,136.47
2017-12-23T07:51:02.067Z,128.90
2017-12-23T07:53:31.094Z,135.67
2017-12-23T07:56:00.062Z,118.83
2017-12-23T07:58:28.160Z,117.77
2017-12-23T08:00:56.412Z,113.27
2017-12-23T08:03:24.525Z,111.67
2017-12-23T08:05:53.415Z,95.00
2017-12-23T08:08:22.328Z,122.07
2017-12-23T08:10:50.448Z,112.57
2017-12-23T08:13:18.614Z,103.67
2017-12-23T08:15:47.719Z,102.20
2017-12-23T08:18:15.911Z,109.37
2017-12-23T08:20:44.064Z,92.60
2017-12-23T08:23:12.213Z,86.37
2017-12-23T08:25:40.537Z,88.37
2017-12-23T08:28:09.472Z,99.70
2017-12-23T08:30:37.662Z,97.43
2017-12-23T08:33:05.832Z,100.30
2017-12-23T08:35:34.004Z,97.03
2017-12-23T08:38:02.120Z,93.87
2017-12-23T08:40:30.228Z,85.43
2017-12-23T08:42:58.365Z,84.07
2017-12-23T08:45:27.224Z,84.90
2017-12-23T08:53:27.434Z,88.20
2017-12-23T08:55:56.315Z,95.47
2017-12-23T08:58:25.245Z,83.60
2017-12-23T09:00:53.388Z,81.33
2017-12-23T09:09:02.506Z,85.30
2017-12-23T09:11:30.689Z,79.97
2017-12-23T09:13:58.846Z,69.93
2017-12-23T09:16:26.980Z,63.17
2017-12-23T09:18:55.924Z,62.03
2017-12-23T09:21:24.648Z,62.73
2017-12-23T09:23:52.759Z,63.43
2017-12-23T09:26:20.887Z,68.53
2017-12-23T09:28:49.019Z,58.30
2017-12-23T09:31:17.163Z,57.17
2017-12-23T09:33:45.996Z,47.43
2017-12-23T09:36:14.165Z,53.50
2017-12-23T09:38:42.932Z,58.60
2017-12-23T09:41:11.075Z,58.47
2017-12-23T09:43:41.866Z,55.07
2017-12-23T09:46:09.980Z,58.37
2017-12-23T09:48:38.901Z,60.83
2017-12-23T09:51:07.068Z,52.23
2017-12-23T09:53:35.209Z,59.27
2017-12-23T09:56:03.546Z,56.80
2017-12-23T09:58:31.689Z,52.30
2017-12-23T10:00:59.782Z,49.97
2017-12-23T10:03:27.954Z,57.67
2017-12-23T10:05:56.157Z,55.67
2017-12-23T10:08:24.780Z,49.53
2017-12-23T10:10:53.747Z,48.17
2017-12-23T10:13:22.091Z,48.40
2017-12-23T10:15:50.208Z,52.67
2017-12-23T10:20:58.167Z,54.10
2017-12-23T10:23:26.775Z,50.90
2017-12-23T10:25:54.920Z,52.67
2017-12-23T10:28:23.027Z,60.20
2017-12-23T10:30:52.133Z,67.10
2017-12-23T10:33:20.499Z,62.97
2017-12-23T10:35:48.612Z,69.13
2017-12-23T10:38:16.764Z,77.10
2017-12-23T10:40:45.138Z,72.03
2017-12-23T10:43:13.307Z,74.53
2017-12-23T10:49:45.495Z,63.50
2017-12-23T10:52:13.648Z,60.40
2017-12-23T10:54:41.787Z,61.27
2017-12-23T10:57:12.272Z,60.70
2017-12-23T10:59:40.451Z,57.27
2017-12-23T11:02:08.534Z,60.40
2017-12-23T11:04:36.707Z,60.53
2017-12-23T11:07:04.787Z,65.13
2017-12-23T11:09:32.954Z,61.90
2017-12-23T11:12:01.025Z,59.97
2017-12-23T11:14:29.180Z,57.47
2017-12-23T11:17:00.333Z,55.70
2017-12-23T11:19:28.452Z,47.63
2017-12-23T11:22:02.092Z,48.30
2017-12-23T11:49:53.995Z,39.27
2017-12-23T11:52:22.187Z,40.93
2017-12-23T11:54:50.399Z,50.10
2017-12-23T11:57:18.536Z,38.43
2017-12-23T11:59:46.668Z,39.50
2017-12-23T12:02:14.840Z,41.60
2017-12-23T12:04:43.249Z,31.90
2017-12-23T12:07:12.433Z,36.13
2017-12-23T12:09:42.633Z,34.80
2017-12-23T12:12:30.833Z,35.83
2017-12-23T12:15:00.018Z,30.80
2017-12-23T12:17:30.147Z,35.97
2017-12-23T12:19:59.270Z,27.27
2017-12-23T12:22:27.406Z,27.03
2017-12-23T12:24:55.671Z,28.53
2017-12-23T12:27:23.870Z,28.57
2017-12-23T12:29:51.977Z,20.17
2017-12-23T12:32:20.839Z,22.37
2017-12-23T12:34:49.228Z,17.37
2017-12-23T12:37:17.294Z,20.50
2017-12-23T12:39:45.446Z,17.17
2017-12-23T12:42:13.984Z,13.53
2017-12-23T12:44:42.136Z,11.70
2017-12-23T12:47:10.978Z,12.20
2017-12-23T12:49:39.125Z,9.87
2017-12-23T12:52:08.140Z,9.00
2017-12-23T12:54:36.314Z,9.80
2017-12-23T12:57:04.504Z,10.50
2017-12-23T12:59:32.588Z,11.27
2017-12-23T13:02:00.737Z,9.37
2017-12-23T13:04:29.756Z,8.80
2017-12-23T13:06:57.899Z,6.90
2017-12-23T13:09:26.034Z,9.53
2017-12-23T13:11:54.951Z,6.97
2017-12-23T13:14:23.235Z,7.13
2017-12-23T13:16:51.312Z,8.03
2017-12-23T13:19:19.474Z,10.10
2017-12-23T13:21:47.603Z,7.73
2017-12-23T13:24:15.712Z,9.30
2017-12-23T13:26:43.829Z,8.20
2017-12-23T13:29:11.944Z,9.30
2017-12-23T13:31:40.072Z,9.33
2017-12-23T13:34:08.157Z,8.50
2017-12-23T13:36:36.275Z,9.17
2017-12-23T13:39:04.458Z,9.53
2017-12-23T13:41:32.508Z,11.17
2017-12-23T13:44:00.604Z,12.37
2017-12-23T13:46:29.084Z,11.70
2017-12-23T13:48:57.220Z,19.17
2017-12-23T13:51:25.372Z,13.47
2017-12-23T13:53:53.645Z,11.90
2017-12-23T13:56:21.829Z,13.17
2017-12-23T13:58:49.927Z,15.73
2017-12-23T14:01:18.784Z,17.40
2017-12-23T14:03:46.935Z,23.70
2017-12-23T14:06:15.158Z,19.90
2017-12-23T14:08:43.320Z,21.30
2017-12-23T14:11:11.463Z,27.13
2017-12-23T14:13:39.576Z,18.80
2017-12-23T14:16:08.264Z,18.90
2017-12-23T14:18:37.157Z,20.90
2017-12-23T14:21:05.309Z,21.97
2017-12-23T14:23:34.579Z,20.23
2017-12-23T14:26:02.683Z,19.87
2017-12-23T14:28:30.831Z,22.40
2017-12-23T14:30:58.990Z,18.97
2017-12-23T14:33:27.178Z,19.40
2017-12-23T14:35:55.326Z,20.80
2017-12-23T14:38:23.420Z,21.80
2017-12-23T14:40:52.054Z,22.10
2017-12-23T14:43:20.939Z,21.90
2017-12-23T14:45:49.158Z,19.77
2017-12-23T14:48:17.284Z,23.03
2017-12-23T14:50:46.187Z,18.33
2017-12-23T14:53:15.114Z,21.77
2017-12-23T14:55:43.248Z,16.20
2017-12-23T14:58:12.144Z,20.23
2017-12-23T15:00:41.032Z,20.50
2017-12-23T15:03:09.927Z,20.90
2017-12-23T15:05:38.777Z,20.40
2017-12-23T15:08:06.920Z,19.93
2017-12-23T15:10:35.032Z,21.70
2017-12-23T15:13:03.192Z,16.37
2017-12-23T15:15:31.352Z,20.00
2017-12-23T15:17:59.569Z,23.00
2017-12-23T15:20:27.692Z,25.03
2017-12-23T15:22:55.817Z,20.37
2017-12-23T15:25:23.955Z,18.50
2017-12-23T15:27:52.047Z,23.20
2017-12-23T15:30:20.236Z,17.20
2017-12-23T15:32:48.469Z,16.50
2017-12-23T15:35:16.585Z,17.57
2017-12-23T15:37:44.713Z,17.70
2017-12-23T15:40:12.805Z,19.70
2017-12-23T15:42:40.945Z,18.17
2017-12-23T15:45:09.185Z,19.50
2017-12-23T15:47:37.329Z,16.80
2017-12-23T15:50:05.455Z,18.33
2017-12-23T15:52:33.559Z,15.07
2017-12-23T15:55:01.805Z,15.27
2017-12-23T15:57:29.916Z,15.43
2017-12-23T16:00:01.647Z,19.80
2017-12-23T16:02:29.759Z,15.93
2017-12-23T16:04:57.874Z,14.30
2017-12-23T16:07:26.131Z,13.67
2017-12-23T16:09:54.456Z,17.60
2017-12-23T16:12:22.548Z,15.80
2017-12-23T16:14:50.692Z,16.97
2017-12-23T16:17:18.800Z,19.50
2017-12-23T16:19:46.876Z,17.07
2017-12-23T16:22:15.020Z,17.03
2017-12-23T16:24:43.124Z,16.50
2017-12-23T16:27:11.931Z,24.07
2017-12-23T16:29:40.826Z,17.20
2017-12-23T16:32:10.691Z,16.47
2017-12-23T16:34:38.826Z,16.20
2017-12-23T16:37:07.906Z,18.03
2017-12-23T16:39:36.925Z,20.23
2017-12-23T16:42:05.816Z,18.60
2017-12-23T16:44:35.522Z,18.70
2017-12-23T16:47:04.420Z,20.57
2017-12-23T16:49:32.556Z,18.77
2017-12-23T16:52:00.639Z,19.17
2017-12-23T16:54:28.759Z,19.10
2017-12-23T16:56:56.873Z,21.00
2017-12-23T16:59:25.043Z,21.80
2017-12-23T17:01:53.689Z,23.67
2017-12-23T17:04:21.832Z,23.20
2017-12-23T17:06:50.739Z,22.17
2017-12-23T17:09:23.670Z,20.47
2017-12-23T17:11:51.798Z,23.50
2017-12-23T17:14:19.925Z,23.63
2017-12-23T17:16:48.019Z,23.37
2017-12-23T17:19:16.286Z,20.87
2017-12-23T17:21:44.435Z,21.97
2017-12-23T17:24:13.460Z,24.63
2017-12-23T17:26:41.623Z,22.97
2017-12-23T17:32:17.050Z,24.30
2017-12-23T17:34:45.259Z,23.30
2017-12-23T17:37:14.083Z,19.53
2017-12-23T17:39:42.259Z,25.50
2017-12-23T17:42:10.424Z,21.60
2017-12-23T17:44:42.049Z,23.60
2017-12-23T17:47:12.962Z,21.53
2017-12-23T17:49:41.047Z,20.10
2017-12-23T17:52:13.012Z,21.07
2017-12-23T17:54:42.827Z,21.97
2017-12-23T17:57:11.123Z,21.03
2017-12-23T17:59:39.248Z,18.13
2017-12-23T18:05:22.788Z,21.57
2017-12-23T18:07:50.883Z,21.67
2017-12-23T18:10:19.002Z,21.53
2017-12-23T18:12:47.143Z,21.13
2017-12-23T18:15:15.467Z,25.67
2017-12-23T18:17:44.367Z,21.43
2017-12-23T18:20:12.667Z,22.03
2017-12-23T18:22:40.776Z,25.27
2017-12-23T18:25:08.900Z,26.00
2017-12-23T18:27:37.003Z,22.30
2017-12-23T18:30:05.148Z,23.90
2017-12-23T18:35:24.048Z,26.43
2017-12-23T18:37:52.165Z,25.23
2017-12-23T18:40:21.458Z,22.80
2017-12-23T18:42:49.585Z,24.23
2017-12-23T18:45:19.508Z,21.77
2017-12-23T18:47:47.603Z,24.17
2017-12-23T18:50:15.792Z,22.43
2017-12-23T18:52:44.659Z,26.00
2017-12-23T18:55:12.782Z,23.80
2017-12-23T18:57:40.949Z,29.47
2017-12-23T19:00:09.816Z,28.00
2017-12-23T19:02:38.058Z,23.27
2017-12-23T19:05:06.163Z,24.73
2017-12-23T19:07:34.331Z,26.60
2017-12-23T19:10:02.449Z,24.50
2017-12-23T19:12:30.584Z,25.33
2017-12-23T19:14:58.673Z,23.10
2017-12-23T19:17:26.888Z,26.70
2017-12-23T19:19:55.123Z,27.60
2017-12-23T19:22:23.996Z,23.93
2017-12-23T19:24:52.090Z,24.47
2017-12-23T19:27:20.211Z,27.80
2017-12-23T19:29:48.325Z,26.87
2017-12-23T19:32:16.433Z,27.53
2017-12-23T19:34:44.680Z,29.70
2017-12-23T19:37:12.814Z,28.83
2017-12-23T19:39:40.928Z,28.33
2017-12-23T19:42:09.915Z,30.80
2017-12-23T19:44:38.800Z,30.37
2017-12-23T19:47:07.835Z,25.47
2017-12-23T19:49:36.134Z,26.73
2017-12-23T19:52:04.228Z,42.23
2017-12-23T19:54:32.341Z,29.87
2017-12-23T19:57:00.443Z,28.33
2017-12-23T19:59:28.678Z,29.90
2017-12-23T20:01:57.542Z,41.63
2017-12-23T20:04:25.772Z,36.93
2017-12-23T20:06:54.117Z,34.43
2017-12-23T20:09:22.214Z,39.00
2017-12-23T20:11:50.392Z,29.70
2017-12-23T20:14:18.491Z,30.00
2017-12-23T20:16:46.581Z,31.90
2017-12-23T20:19:14.700Z,35.00
2017-12-23T20:21:42.911Z,34.73
2017-12-23T20:24:11.057Z,30.27
2017-12-23T20:26:39.159Z,30.93
2017-12-23T20:29:07.273Z,30.80
2017-12-23T20:31:37.192Z,37.63
2017-12-23T20:34:06.065Z,30.90
2017-12-23T20:36:34.204Z,34.93
2017-12-23T20:39:02.363Z,29.40
2017-12-23T20:41:30.865Z,33.57
2017-12-23T20:43:58.978Z,33.93
2017-12-23T20:46:27.867Z,30.47
2017-12-23T20:48:55.984Z,34.73
2017-12-23T20:51:24.106Z,33.37
2017-12-23T20:53:53.102Z,31.10
2017-12-23T20:56:21.286Z,30.57
2017-12-23T20:58:49.417Z,39.20
2017-12-23T21:01:17.612Z,27.37
2017-12-23T21:03:45.928Z,31.83
2017-12-23T21:06:14.085Z,30.47
2017-12-23T21:08:42.264Z,32.33
2017-12-23T21:11:10.440Z,35.50
2017-12-23T21:13:38.537Z,32.13
2017-12-23T21:16:06.653Z,33.97
2017-12-23T21:18:34.775Z,32.07
2017-12-23T21:21:02.874Z,32.30
2017-12-23T21:23:31.009Z,30.67
2017-12-23T21:25:59.863Z,32.93
2017-12-23T21:28:28.134Z,27.23
2017-12-23T21:30:56.259Z,31.27
2017-12-23T21:33:24.518Z,31.27
2017-12-23T21:35:52.712Z,30.50
2017-12-23T21:38:20.832Z,30.00
2017-12-23T21:40:48.932Z,33.50
2017-12-23T21:43:17.788Z,34.33
2017-12-23T21:45:45.911Z,30.33
2017-12-23T21:48:14.044Z,30.80
2017-12-23T21:50:42.157Z,33.50
2017-12-23T21:53:10.250Z,28.83
2017-12-23T21:55:38.371Z,31.90
2017-12-23T21:58:06.480Z,32.90
2017-12-23T22:00:34.598Z,30.17
2017-12-23T22:03:02.747Z,32.97
2017-12-23T22:05:30.860Z,31.97
2017-12-23T22:07:59.040Z,29.50
2017-12-23T22:10:27.235Z,31.17
2017-12-23T22:12:56.124Z,48.60
2017-12-23T22:15:24.229Z,32.27
2017-12-23T22:17:52.352Z,28.90
2017-12-23T22:20:21.298Z,30.57
2017-12-23T22:22:49.412Z,33.83
2017-12-23T22:25:17.541Z,28.40
2017-12-23T22:27:45.659Z,32.70
2017-12-23T22:30:13.745Z,32.80
2017-12-23T22:32:42.666Z,30.00
2017-12-23T22:35:10.779Z,38.17
2017-12-23T22:37:38.927Z,31.93
2017-12-23T22:40:07.159Z,29.87
2017-12-23T22:42:36.264Z,32.97
2017-12-23T22:45:04.544Z,31.40
2017-12-23T22:47:32.664Z,31.23
2017-12-23T22:50:00.995Z,26.10
2017-12-23T22:52:29.090Z,25.83
2017-12-23T22:54:57.232Z,24.77
2017-12-23T22:57:26.083Z,25.03
2017-12-23T22:59:54.207Z,24.23
2017-12-23T23:02:22.320Z,24.27
2017-12-23T23:04:50.645Z,25.13
2017-12-23T23:07:19.592Z,20.00
2017-12-23T23:09:47.723Z,19.60
2017-12-23T23:12:16.562Z,19.60
2017-12-23T23:14:44.776Z,23.50
2017-12-23T23:17:13.921Z,19.73
2017-12-23T23:19:42.236Z,20.80
2017-12-23T23:22:10.376Z,25.27
2017-12-23T23:24:38.599Z,19.30
2017-12-23T23:27:06.692Z,18.23
2017-12-23T23:29:34.919Z,16.37
2017-12-23T23:32:03.045Z,20.83
2017-12-23T23:34:31.190Z,16.63
2017-12-23T23:37:00.087Z,17.23
2017-12-23T23:39:28.995Z,18.20
2017-12-23T23:41:57.435Z,18.33
2017-12-23T23:44:25.540Z,14.90
2017-12-23T23:46:53.747Z,19.00
2017-12-23T23:49:22.110Z,26.43
2017-12-23T23:51:50.939Z,18.20
2017-12-23T23:54:19.094Z,23.00
2017-12-23T23:56:47.278Z,25.83
2017-12-23T23:59:15.372Z,24.97
